createdAt,value
2019-04-12T00:00:06.604Z,55.92
2019-04-12T00:02:37.944Z,56.02
2019-04-12T00:05:08.478Z,56.00
2019-04-12T00:07:39.274Z,56.24
2019-04-12T00:10:09.958Z,56.40
2019-04-12T00:12:40.126Z,56.44
2019-04-12T00:15:12.192Z,56.75
2019-04-12T00:17:44.243Z,56.69
2019-04-12T00:20:15.354Z,57.00
2019-04-12T00:22:46.420Z,57.05
2019-04-12T00:25:17.477Z,56.92
2019-04-12T00:27:48.893Z,57.07
2019-04-12T00:30:21.419Z,57.17
2019-04-12T00:32:52.423Z,57.45
2019-04-12T00:35:23.031Z,57.67
2019-04-12T00:37:55.734Z,57.77
2019-04-12T00:40:25.795Z,58.03
2019-04-12T00:42:56.558Z,58.07
2019-04-12T00:45:26.774Z,57.97
2019-04-12T00:47:56.972Z,58.21
2019-04-12T00:50:27.327Z,58.24
2019-04-12T00:52:57.573Z,58.36
2019-04-12T00:55:27.546Z,58.45
2019-04-12T00:57:58.069Z,58.55
2019-04-12T01:00:30.050Z,58.68
2019-04-12T01:03:01.767Z,58.76
2019-04-12T01:05:33.734Z,59.13
2019-04-12T01:08:05.113Z,59.14
2019-04-12T01:10:40.141Z,59.12
2019-04-12T01:13:11.079Z,58.98
2019-04-12T01:15:41.973Z,59.18
2019-04-12T01:18:12.663Z,59.42
2019-04-12T01:20:43.240Z,59.47
2019-04-12T01:23:13.612Z,59.55
2019-04-12T01:25:44.621Z,59.43
2019-04-12T01:28:17.727Z,59.50
2019-04-12T01:30:47.877Z,59.52
2019-04-12T01:33:17.826Z,59.58
2019-04-12T01:35:48.320Z,59.75
2019-04-12T01:38:19.262Z,59.45
2019-04-12T01:40:49.874Z,59.36
2019-04-12T01:43:20.451Z,59.17
2019-04-12T01:45:50.690Z,59.16
2019-04-12T01:48:20.929Z,59.05
2019-04-12T01:50:51.094Z,59.07
2019-04-12T01:53:21.277Z,59.39
2019-04-12T01:55:51.821Z,59.30
2019-04-12T01:58:22.641Z,59.58
2019-04-12T02:00:52.995Z,59.60
2019-04-12T02:03:23.271Z,59.67
2019-04-12T02:05:53.643Z,59.59
2019-04-12T02:08:23.542Z,59.98
2019-04-12T02:10:54.430Z,59.87
2019-04-12T02:13:25.027Z,59.78
2019-04-12T02:15:55.249Z,60.11
2019-04-12T02:18:25.409Z,60.32
2019-04-12T02:20:56.351Z,60.42
2019-04-12T02:23:26.639Z,60.36
2019-04-12T02:25:57.250Z,60.30
2019-04-12T02:28:30.647Z,60.19
2019-04-12T02:31:04.859Z,60.40
2019-04-12T02:33:35.316Z,60.49
2019-04-12T02:36:05.514Z,60.67
2019-04-12T02:38:35.729Z,60.74
2019-04-12T02:41:06.156Z,60.65
2019-04-12T02:43:36.145Z,60.87
2019-04-12T02:46:07.387Z,60.93
2019-04-12T02:48:55.456Z,61.02
2019-04-12T02:51:46.069Z,61.27
2019-04-12T02:54:25.294Z,61.26
2019-04-12T02:57:20.088Z,61.38
2019-04-12T02:59:51.269Z,61.46
2019-04-12T03:02:25.573Z,61.46
2019-04-12T03:04:56.396Z,61.76
2019-04-12T03:07:27.205Z,61.71
2019-04-12T03:10:00.083Z,61.83
2019-04-12T03:12:32.546Z,62.16
2019-04-12T03:15:05.121Z,62.39
2019-04-12T03:17:36.339Z,62.61
2019-04-12T03:20:07.756Z,62.79
2019-04-12T03:22:38.397Z,62.94
2019-04-12T03:25:09.282Z,63.35
2019-04-12T03:27:41.212Z,63.43
2019-04-12T03:30:11.981Z,63.70
2019-04-12T03:32:42.915Z,63.69
2019-04-12T03:35:13.053Z,63.82
2019-04-12T03:37:43.980Z,63.94
2019-04-12T03:40:14.314Z,64.13
2019-04-12T03:42:45.304Z,64.06
2019-04-12T03:45:54.527Z,64.11
2019-04-12T03:48:25.260Z,64.39
2019-04-12T03:50:55.367Z,64.47
2019-04-12T03:53:26.468Z,64.85
2019-04-12T03:56:07.887Z,64.84
2019-04-12T03:58:28.900Z,65.11
2019-04-12T04:00:59.005Z,65.31
2019-04-12T04:03:30.075Z,65.23
2019-04-12T04:06:00.170Z,65.32
2019-04-12T04:08:30.575Z,65.52
2019-04-12T04:11:00.618Z,65.41
2019-04-12T04:13:30.830Z,65.52
2019-04-12T04:16:03.076Z,65.39
2019-04-12T04:18:33.108Z,65.76
2019-04-12T04:21:10.847Z,65.92
2019-04-12T04:23:52.131Z,66.03
2019-04-12T04:26:39.960Z,66.20
2019-04-12T04:29:45.023Z,66.37
2019-04-12T04:32:32.195Z,66.48
2019-04-12T04:35:03.235Z,66.36
2019-04-12T04:37:33.646Z,66.36
2019-04-12T04:40:04.213Z,66.46
2019-04-12T04:42:34.335Z,66.75
2019-04-12T04:45:05.089Z,66.91
2019-04-12T04:47:35.713Z,67.01
2019-04-12T04:50:06.653Z,67.41
2019-04-12T04:52:37.105Z,67.31
2019-04-12T04:55:07.426Z,67.54
2019-04-12T04:57:37.867Z,67.54
2019-04-12T05:00:08.734Z,67.65
2019-04-12T05:02:38.853Z,67.65
2019-04-12T05:05:09.814Z,67.65
2019-04-12T05:07:39.865Z,67.69
2019-04-12T05:10:10.303Z,68.02
2019-04-12T05:12:40.659Z,68.07
2019-04-12T05:15:10.958Z,68.14
2019-04-12T05:17:41.202Z,67.71
2019-04-12T05:20:11.426Z,68.16
2019-04-12T05:22:43.747Z,67.95
2019-04-12T05:25:14.578Z,68.31
2019-04-12T05:27:44.783Z,68.20
2019-04-12T05:30:15.347Z,68.38
2019-04-12T05:32:45.808Z,68.53
2019-04-12T05:35:15.790Z,68.33
2019-04-12T05:37:45.875Z,68.62
2019-04-12T05:40:16.441Z,68.69
2019-04-12T05:42:46.300Z,68.57
2019-04-12T05:45:19.506Z,69.06
2019-04-12T05:48:04.683Z,68.83
2019-04-12T05:50:37.061Z,69.45
2019-04-12T05:53:07.174Z,69.66
2019-04-12T05:55:40.723Z,69.47
2019-04-12T05:58:29.619Z,69.77
2019-04-12T06:01:17.740Z,69.58
2019-04-12T06:03:48.325Z,69.67
2019-04-12T06:06:18.249Z,69.98
2019-04-12T06:08:48.221Z,69.91
2019-04-12T06:11:18.058Z,70.04
2019-04-12T06:13:49.205Z,69.46
2019-04-12T06:16:19.026Z,69.52
2019-04-12T06:18:49.561Z,69.12
2019-04-12T06:21:35.213Z,69.41
2019-04-12T06:24:05.122Z,69.75
2019-04-12T06:26:45.183Z,69.82
2019-04-12T06:29:15.164Z,69.69
2019-04-12T06:31:45.526Z,69.19
2019-04-12T06:34:15.416Z,69.51
2019-04-12T06:36:45.334Z,69.30
2019-04-12T06:39:15.419Z,70.41
2019-04-12T06:41:45.536Z,69.90
2019-04-12T06:44:15.365Z,69.60
2019-04-12T06:46:45.209Z,69.67
2019-04-12T06:49:15.409Z,69.67
2019-04-12T06:51:45.260Z,70.09
2019-04-12T06:54:15.546Z,69.43
2019-04-12T06:56:57.381Z,69.62
2019-04-12T06:59:27.439Z,69.49
2019-04-12T07:02:13.623Z,69.80
2019-04-12T07:04:46.994Z,70.34
2019-04-12T07:07:16.904Z,70.83
2019-04-12T07:09:47.076Z,71.02
2019-04-12T07:12:16.915Z,71.23
2019-04-12T07:14:46.776Z,70.97
2019-04-12T07:17:16.711Z,69.77
2019-04-12T07:19:46.861Z,70.02
2019-04-12T07:22:16.679Z,70.16
2019-04-12T07:24:46.521Z,69.80
2019-04-12T07:27:16.454Z,69.30
2019-04-12T07:29:46.361Z,69.55
2019-04-12T07:32:16.291Z,69.64
2019-04-12T07:34:46.404Z,69.56
2019-04-12T07:37:16.242Z,69.13
2019-04-12T07:39:46.096Z,69.18
2019-04-12T07:42:16.277Z,69.10
2019-04-12T07:44:46.430Z,69.12
2019-04-12T07:47:16.270Z,68.48
2019-04-12T07:49:46.171Z,68.05
2019-04-12T07:52:20.771Z,67.04
2019-04-12T07:55:06.051Z,66.81
2019-04-12T07:57:54.845Z,66.09
2019-04-12T08:00:40.848Z,66.06
2019-04-12T08:03:32.862Z,65.64
2019-04-12T08:06:18.631Z,65.70
2019-04-12T08:08:48.801Z,66.14
2019-04-12T08:11:18.682Z,65.55
2019-04-12T08:13:48.521Z,65.52
2019-04-12T08:16:18.366Z,64.82
2019-04-12T08:18:48.250Z,63.68
2019-04-12T08:21:18.399Z,63.35
2019-04-12T08:23:48.259Z,62.10
2019-04-12T08:26:18.129Z,61.85
2019-04-12T08:28:48.080Z,62.18
2019-04-12T08:31:18.349Z,61.89
2019-04-12T08:33:48.627Z,61.65
2019-04-12T08:36:18.460Z,61.02
2019-04-12T08:38:48.969Z,60.96
2019-04-12T08:41:18.808Z,60.43
2019-04-12T08:43:51.297Z,61.33
2019-04-12T08:46:20.265Z,60.44
2019-04-12T08:48:50.146Z,60.26
2019-04-12T08:51:23.186Z,60.41
2019-04-12T08:53:51.733Z,59.77
2019-04-12T08:56:21.966Z,59.20
2019-04-12T08:58:51.844Z,58.65
2019-04-12T09:01:21.758Z,57.42
2019-04-12T09:03:52.072Z,57.25
2019-04-12T09:06:22.275Z,56.96
2019-04-12T09:09:12.298Z,56.47
2019-04-12T09:11:43.376Z,55.07
2019-04-12T09:14:13.309Z,55.16
2019-04-12T09:16:43.364Z,54.32
2019-04-12T09:19:31.375Z,54.47
2019-04-12T09:22:23.681Z,54.30
2019-04-12T09:24:58.529Z,54.31
2019-04-12T09:27:28.446Z,53.15
2019-04-12T09:30:00.623Z,53.05
2019-04-12T09:32:30.015Z,51.90
2019-04-12T09:35:00.186Z,51.26
2019-04-12T09:37:30.030Z,51.19
2019-04-12T09:39:59.901Z,52.15
2019-04-12T09:42:29.751Z,52.39
2019-04-12T09:44:59.657Z,51.30
2019-04-12T09:47:29.878Z,52.07
2019-04-12T09:49:59.720Z,52.66
2019-04-12T09:52:29.549Z,52.53
2019-04-12T09:54:59.387Z,51.81
2019-04-12T09:57:29.561Z,50.63
2019-04-12T09:59:59.765Z,50.28
2019-04-12T10:02:29.676Z,51.07
2019-04-12T10:04:59.861Z,50.03
2019-04-12T10:07:29.712Z,49.77
2019-04-12T10:09:59.649Z,49.32
2019-04-12T10:12:29.497Z,49.60
2019-04-12T10:14:59.915Z,47.94
2019-04-12T10:17:30.061Z,47.23
2019-04-12T10:20:00.149Z,46.79
2019-04-12T10:22:30.287Z,46.66
2019-04-12T10:25:00.622Z,45.98
2019-04-12T10:27:30.491Z,45.68
2019-04-12T10:30:00.377Z,44.95
2019-04-12T10:32:30.251Z,45.01
2019-04-12T10:35:01.431Z,44.54
2019-04-12T10:37:31.428Z,44.24
2019-04-12T10:40:01.302Z,43.90
2019-04-12T10:42:31.379Z,43.51
2019-04-12T10:45:10.229Z,43.03
2019-04-12T10:47:46.031Z,43.24
2019-04-12T10:50:38.173Z,41.86
2019-04-12T10:53:24.287Z,41.98
2019-04-12T10:55:55.649Z,42.95
2019-04-12T10:58:25.816Z,43.23
2019-04-12T11:00:56.667Z,42.62
2019-04-12T11:03:26.767Z,41.75
2019-04-12T11:05:56.923Z,41.44
2019-04-12T11:08:26.814Z,41.25
2019-04-12T11:10:56.689Z,42.66
2019-04-12T11:13:27.190Z,41.75
2019-04-12T11:15:57.411Z,40.63
2019-04-12T11:18:27.351Z,40.76
2019-04-12T11:20:57.509Z,40.02
2019-04-12T11:23:27.718Z,40.31
2019-04-12T11:25:57.572Z,39.92
2019-04-12T11:28:27.407Z,39.99
2019-04-12T11:30:57.292Z,39.85
2019-04-12T11:33:27.556Z,39.63
2019-04-12T11:35:57.862Z,39.63
2019-04-12T11:38:28.103Z,40.14
2019-04-12T11:40:58.114Z,39.42
2019-04-12T11:43:28.200Z,38.94
2019-04-12T11:45:58.102Z,39.17
2019-04-12T11:48:27.967Z,38.34
2019-04-12T11:50:57.967Z,38.49
2019-04-12T11:53:28.162Z,37.75
2019-04-12T11:55:58.142Z,37.47
2019-04-12T11:58:46.965Z,37.00
2019-04-12T12:01:09.133Z,37.38
2019-04-12T12:03:58.849Z,37.29
2019-04-12T12:06:32.711Z,38.03
2019-04-12T12:09:27.243Z,38.30
2019-04-12T12:12:06.019Z,39.81
2019-04-12T12:14:45.607Z,43.29
2019-04-12T12:17:26.731Z,45.12
2019-04-12T12:19:57.429Z,47.00
2019-04-12T12:22:28.002Z,46.73
2019-04-12T12:24:58.071Z,47.19
2019-04-12T12:27:27.986Z,48.80
2019-04-12T12:29:58.011Z,49.62
2019-04-12T12:32:28.113Z,49.61
2019-04-12T12:34:58.042Z,50.34
2019-04-12T12:37:28.268Z,50.18
2019-04-12T12:39:58.216Z,48.67
2019-04-12T12:42:28.100Z,46.38
2019-04-12T12:44:58.589Z,44.43
2019-04-12T12:47:29.780Z,43.79
2019-04-12T12:49:59.774Z,43.07
2019-04-12T12:52:29.645Z,42.72
2019-04-12T12:54:59.520Z,42.86
2019-04-12T12:57:29.416Z,45.23
2019-04-12T12:59:59.851Z,47.75
2019-04-12T13:02:30.125Z,49.90
2019-04-12T13:05:00.496Z,50.24
2019-04-12T13:07:30.378Z,49.75
2019-04-12T13:10:03.484Z,48.56
2019-04-12T13:12:33.156Z,48.28
2019-04-12T13:15:03.035Z,47.75
2019-04-12T13:17:33.075Z,46.78
2019-04-12T13:20:04.173Z,45.22
2019-04-12T13:22:34.131Z,45.19
2019-04-12T13:25:04.336Z,45.82
2019-04-12T13:27:34.522Z,44.81
2019-04-12T13:30:13.563Z,46.25
2019-04-12T13:32:55.785Z,45.19
2019-04-12T13:35:47.614Z,45.02
2019-04-12T13:38:46.324Z,44.27
2019-04-12T13:41:16.345Z,44.31
2019-04-12T13:43:47.076Z,43.60
2019-04-12T13:46:17.146Z,42.49
2019-04-12T13:48:47.325Z,42.66
2019-04-12T13:51:17.148Z,42.57
2019-04-12T13:53:48.015Z,43.98
2019-04-12T13:56:18.491Z,43.55
2019-04-12T13:58:48.995Z,43.20
2019-04-12T14:01:18.864Z,43.64
2019-04-12T14:03:48.706Z,43.55
2019-04-12T14:06:18.643Z,43.70
2019-04-12T14:08:48.479Z,43.68
2019-04-12T14:11:18.371Z,44.28
2019-04-12T14:13:48.567Z,43.99
2019-04-12T14:16:18.396Z,44.25
2019-04-12T14:18:48.257Z,43.90
2019-04-12T14:21:18.300Z,44.04
2019-04-12T14:23:48.210Z,44.06
2019-04-12T14:26:18.319Z,43.64
2019-04-12T14:28:48.253Z,43.57
2019-04-12T14:31:23.133Z,43.61
2019-04-12T14:34:14.006Z,43.10
2019-04-12T14:37:05.636Z,43.07
2019-04-12T14:39:36.209Z,43.21
2019-04-12T14:42:06.222Z,43.76
2019-04-12T14:44:50.683Z,42.80
2019-04-12T14:47:33.622Z,43.54
2019-04-12T14:50:02.917Z,44.40
2019-04-12T14:52:32.776Z,45.44
2019-04-12T14:55:02.670Z,46.39
2019-04-12T14:57:32.549Z,48.25
2019-04-12T15:00:02.390Z,49.48
2019-04-12T15:02:32.228Z,49.32
2019-04-12T15:05:02.365Z,49.80
2019-04-12T15:07:32.646Z,47.87
2019-04-12T15:10:02.576Z,47.17
2019-04-12T15:16:20.373Z,45.69
2019-04-12T15:18:53.703Z,44.56
2019-04-12T15:21:23.741Z,44.51
2019-04-12T15:23:54.322Z,43.67
2019-04-12T15:26:24.243Z,42.99
2019-04-12T15:28:54.734Z,43.51
2019-04-12T15:31:25.179Z,43.83
2019-04-12T15:33:55.446Z,44.05
2019-04-12T15:36:25.750Z,44.69
2019-04-12T15:38:55.952Z,44.42
2019-04-12T15:41:26.053Z,44.95
2019-04-12T15:43:56.265Z,44.70
2019-04-12T15:46:26.446Z,44.94
2019-04-12T15:48:58.891Z,44.92
2019-04-12T15:51:29.054Z,44.95
2019-04-12T15:53:59.337Z,45.22
2019-04-12T15:56:29.575Z,45.09
2019-04-12T15:59:00.367Z,45.58
2019-04-12T16:01:30.715Z,45.59
2019-04-12T16:04:01.957Z,45.63
2019-04-12T16:06:32.731Z,45.81
2019-04-12T16:09:20.219Z,45.90
2019-04-12T16:12:48.465Z,46.05
2019-04-12T16:16:18.299Z,47.00
2019-04-12T16:18:48.861Z,46.42
2019-04-12T16:21:19.697Z,47.18
2019-04-12T16:23:50.324Z,47.58
2019-04-12T16:26:20.754Z,47.48
2019-04-12T16:29:13.456Z,47.83
2019-04-12T16:32:02.674Z,47.70
2019-04-12T16:34:50.320Z,47.98
2019-04-12T16:37:49.205Z,47.83
2019-04-12T16:40:20.351Z,48.41
2019-04-12T16:42:50.953Z,48.65
2019-04-12T16:45:21.504Z,49.03
2019-04-12T16:47:52.690Z,49.34
2019-04-12T16:50:23.278Z,49.47
2019-04-12T16:52:54.451Z,49.02
2019-04-12T16:55:24.492Z,49.38
2019-04-12T16:57:54.856Z,49.23
2019-04-12T17:00:39.371Z,49.57
2019-04-12T17:03:10.161Z,49.80
2019-04-12T17:05:40.691Z,50.00
2019-04-12T17:08:11.041Z,50.17
2019-04-12T17:10:42.051Z,50.47
2019-04-12T17:13:12.425Z,50.39
2019-04-12T17:15:42.910Z,50.80
2019-04-12T17:18:13.440Z,50.73
2019-04-12T17:20:43.464Z,51.14
2019-04-12T17:23:14.457Z,50.98
2019-04-12T17:25:44.998Z,51.09
2019-04-12T17:28:16.172Z,50.76
2019-04-12T17:30:46.126Z,50.91
2019-04-12T17:33:16.521Z,51.10
2019-04-12T17:35:46.821Z,51.33
2019-04-12T17:38:17.217Z,51.41
2019-04-12T17:40:49.108Z,51.26
2019-04-12T17:43:19.121Z,51.36
2019-04-12T17:45:49.560Z,51.67
2019-04-12T17:48:29.730Z,51.91
2019-04-12T17:51:00.058Z,51.61
2019-04-12T17:53:42.042Z,51.93
2019-04-12T17:56:26.595Z,52.33
2019-04-12T17:58:47.390Z,52.57
2019-04-12T18:01:42.395Z,52.46
2019-04-12T18:04:22.849Z,52.45
2019-04-12T18:06:53.078Z,52.65
2019-04-12T18:09:23.697Z,53.03
2019-04-12T18:11:54.032Z,53.33
2019-04-12T18:14:24.652Z,53.24
2019-04-12T18:16:54.559Z,53.64
2019-04-12T18:19:24.495Z,54.02
2019-04-12T18:21:55.030Z,54.04
2019-04-12T18:24:25.632Z,54.72
2019-04-12T18:26:56.597Z,54.52
2019-04-12T18:29:26.927Z,55.01
2019-04-12T18:31:57.133Z,55.48
2019-04-12T18:34:27.700Z,56.02
2019-04-12T18:36:57.656Z,56.27
2019-04-12T18:39:27.661Z,57.16
2019-04-12T18:41:57.887Z,57.23
2019-04-12T18:44:27.893Z,57.98
2019-04-12T18:46:57.903Z,58.85
2019-04-12T18:49:28.391Z,59.32
2019-04-12T18:51:58.953Z,60.28
2019-04-12T18:54:29.525Z,62.53
2019-04-12T18:57:00.218Z,65.06
2019-04-12T18:59:30.456Z,66.22
2019-04-12T19:02:00.593Z,66.78
2019-04-12T19:04:31.139Z,68.28
2019-04-12T19:07:01.383Z,68.43
2019-04-12T19:09:32.014Z,68.71
2019-04-12T19:12:01.947Z,69.20
2019-04-12T19:14:32.681Z,69.20
2019-04-12T19:17:03.102Z,69.32
2019-04-12T19:19:33.298Z,69.42
2019-04-12T19:22:03.259Z,68.68
2019-04-12T19:24:33.737Z,69.09
2019-04-12T19:27:03.963Z,69.00
2019-04-12T19:29:34.471Z,69.33
2019-04-12T19:32:42.215Z,69.61
2019-04-12T19:35:30.841Z,69.90
2019-04-12T19:38:16.953Z,70.26
2019-04-12T19:40:47.748Z,69.58
2019-04-12T19:43:17.655Z,69.89
2019-04-12T19:45:48.408Z,69.94
2019-04-12T19:48:18.411Z,70.18
2019-04-12T19:50:49.682Z,70.98
2019-04-12T19:53:19.901Z,70.33
2019-04-12T19:55:49.847Z,70.10
2019-04-12T19:58:20.474Z,70.49
2019-04-12T20:00:51.038Z,70.56
2019-04-12T20:03:21.943Z,70.84
2019-04-12T20:05:52.700Z,70.72
2019-04-12T20:08:22.910Z,70.04
2019-04-12T20:10:53.217Z,70.47
2019-04-12T20:13:23.848Z,70.02
2019-04-12T20:15:53.779Z,70.20
2019-04-12T20:18:23.805Z,70.19
2019-04-12T20:20:54.760Z,69.91
2019-04-12T20:23:25.333Z,70.49
2019-04-12T20:25:55.962Z,70.54
2019-04-12T20:28:26.690Z,69.95
2019-04-12T20:30:57.230Z,70.24
2019-04-12T20:33:27.392Z,70.64
2019-04-12T20:35:57.622Z,70.11
2019-04-12T20:38:27.897Z,69.28
2019-04-12T20:40:58.161Z,69.28
2019-04-12T20:43:28.140Z,69.07
2019-04-12T20:45:58.381Z,69.59
2019-04-12T20:48:29.057Z,70.07
2019-04-12T20:50:59.026Z,70.17
2019-04-12T20:53:29.277Z,69.87
2019-04-12T20:55:59.585Z,69.64
2019-04-12T20:58:29.566Z,69.21
2019-04-12T21:01:00.095Z,68.50
2019-04-12T21:03:30.798Z,68.80
2019-04-12T21:06:00.700Z,68.79
2019-04-12T21:08:31.295Z,68.83
2019-04-12T21:11:01.563Z,69.24
2019-04-12T21:13:31.546Z,69.20
2019-04-12T21:16:01.892Z,69.40
2019-04-12T21:18:32.321Z,69.50
2019-04-12T21:21:03.093Z,69.43
2019-04-12T21:23:33.343Z,70.04
2019-04-12T21:26:03.958Z,69.72
2019-04-12T21:28:34.188Z,69.64
2019-04-12T21:31:04.424Z,70.17
2019-04-12T21:33:35.229Z,70.44
2019-04-12T21:36:05.773Z,70.92
2019-04-12T21:38:36.566Z,70.66
2019-04-12T21:41:07.362Z,71.02
2019-04-12T21:43:37.507Z,71.53
2019-04-12T21:46:18.849Z,71.10
2019-04-12T21:48:39.777Z,71.09
2019-04-12T21:51:09.991Z,71.63
2019-04-12T21:53:40.805Z,71.14
2019-04-12T21:56:11.460Z,71.22
2019-04-12T21:58:42.475Z,71.10
2019-04-12T22:01:16.964Z,70.72
2019-04-12T22:03:47.830Z,71.50
2019-04-12T22:06:18.174Z,71.96
2019-04-12T22:08:48.425Z,72.32
2019-04-12T22:11:19.020Z,72.69
2019-04-12T22:13:49.852Z,72.94
2019-04-12T22:16:20.106Z,72.50
2019-04-12T22:18:50.761Z,73.01
2019-04-12T22:21:21.007Z,72.94
2019-04-12T22:23:51.244Z,73.50
2019-04-12T22:26:21.795Z,73.66
2019-04-12T22:28:52.120Z,73.64
2019-04-12T22:31:24.790Z,73.55
2019-04-12T22:33:55.050Z,73.39
2019-04-12T22:36:24.989Z,73.93
2019-04-12T22:38:55.451Z,74.19
2019-04-12T22:41:25.525Z,74.03
2019-04-12T22:43:55.786Z,73.96
2019-04-12T22:46:25.767Z,74.15
2019-04-12T22:48:56.349Z,73.42
2019-04-12T22:51:26.266Z,73.62
2019-04-12T22:53:57.008Z,73.45
2019-04-12T22:56:27.317Z,73.73
2019-04-12T22:58:57.960Z,73.57
2019-04-12T23:01:28.485Z,74.28
2019-04-12T23:04:05.145Z,74.32
2019-04-12T23:06:30.567Z,74.29
2019-04-12T23:09:01.198Z,74.17
2019-04-12T23:11:31.145Z,74.24
2019-04-12T23:14:01.780Z,74.17
2019-04-12T23:16:32.646Z,74.57
2019-04-12T23:19:02.944Z,74.78
2019-04-12T23:21:33.545Z,74.88
2019-04-12T23:24:03.480Z,74.91
2019-04-12T23:26:34.045Z,74.96
2019-04-12T23:29:04.334Z,75.03
2019-04-12T23:31:38.786Z,74.95
2019-04-12T23:34:17.834Z,75.07
2019-04-12T23:36:48.066Z,74.93
2019-04-12T23:39:17.993Z,75.21
2019-04-12T23:41:48.323Z,75.04
2019-04-12T23:44:18.564Z,74.83
2019-04-12T23:46:49.158Z,75.12
2019-04-12T23:49:19.354Z,75.31
2019-04-12T23:51:49.601Z,75.45
2019-04-12T23:54:19.822Z,75.71
2019-04-12T23:56:50.667Z,75.90
2019-04-12T23:59:20.841Z,75.96
